Time;durP1;ratioP1;P1;durP2;ratioP2;P2;SDS_P1;SDS_P2;PMS_P1;PMS_P2;Temp;Humidity;BMP_temperature;BMP_pressure;BME280_temperature;BME280_humidity;BME280_pressure;Samples;Min_cycle;Max_cycle;Signal;HPM_P1;HPM_P2
2021/05/22 00:00:26;;;;;;;1.19;0.50;;;;;;;15.81;59.39;100544.83;453152;114;922508;-71
2021/05/22 00:01:30;;;;;;;0.59;0.59;;;;;;;15.80;59.27;100551.41;454924;115;922590;-70
2021/05/22 00:02:33;;;;;;;0.88;0.69;;;;;;;15.76;59.23;100540.09;453586;113;922533;-70
2021/05/22 00:03:37;;;;;;;0.82;0.82;;;;;;;15.73;59.13;100534.23;452495;113;930112;-70
2021/05/22 00:04:40;;;;;;;1.41;0.70;;;;;;;15.68;59.27;100529.48;452103;113;930112;-70
2021/05/22 00:05:44;;;;;;;2.18;0.68;;;;;;;15.66;59.39;100528.89;452140;113;922491;-71
2021/05/22 00:06:49;;;;;;;1.82;0.98;;;;;;;15.65;59.49;100523.67;452580;113;922541;-70
2021/05/22 00:07:52;;;;;;;1.39;0.80;;;;;;;15.66;59.50;100525.31;453374;113;923111;-70
2021/05/22 00:08:55;;;;;;;1.44;1.09;;;;;;;15.67;59.47;100513.23;452834;114;922513;-70
2021/05/22 00:09:59;;;;;;;1.84;0.79;;;;;;;15.67;59.59;100514.08;452252;115;922517;-70
2021/05/22 00:11:03;;;;;;;1.44;0.70;;;;;;;15.69;59.66;100511.09;450670;116;930305;-71
2021/05/22 00:12:07;;;;;;;2.20;0.74;;;;;;;15.71;59.57;100514.43;452756;115;923298;-70
2021/05/22 00:13:11;;;;;;;1.04;0.83;;;;;;;15.71;59.42;100509.73;453551;113;930273;-69
2021/05/22 00:14:15;;;;;;;0.78;0.68;;;;;;;15.70;59.44;100507.26;452312;113;926688;-71
2021/05/22 00:15:19;;;;;;;3.28;1.06;;;;;;;15.69;59.48;100516.58;447005;116;923593;-69
2021/05/22 00:16:23;;;;;;;1.48;1.11;;;;;;;15.69;59.51;100524.83;448163;115;925103;-68
2021/05/22 00:17:27;;;;;;;1.15;0.79;;;;;;;15.67;59.42;100519.58;453158;115;922670;-69
2021/05/22 00:18:30;;;;;;;0.98;0.78;;;;;;;15.65;59.47;100531.92;453741;114;931779;-70
2021/05/22 00:19:34;;;;;;;2.33;0.80;;;;;;;15.63;59.61;100536.81;453282;115;930195;-69
2021/05/22 00:20:39;;;;;;;2.21;0.80;;;;;;;15.62;59.53;100533.23;453385;115;930283;-70
2021/05/22 00:21:43;;;;;;;1.24;1.00;;;;;;;15.59;59.63;100538.41;453966;113;924191;-69
2021/05/22 00:22:46;;;;;;;2.95;1.02;;;;;;;15.56;59.78;100534.22;454450;115;925093;-70
2021/05/22 00:23:50;;;;;;;1.79;0.90;;;;;;;15.56;59.91;100536.14;454464;113;930223;-70
2021/05/22 00:24:54;;;;;;;2.86;1.42;;;;;;;15.56;59.93;100533.39;452865;113;931710;-70
2021/05/22 00:25:57;;;;;;;2.40;0.94;;;;;;;15.56;59.87;100534.22;452549;113;924169;-70
2021/05/22 00:27:01;;;;;;;1.18;0.68;;;;;;;15.55;59.71;100540.80;452907;114;924141;-69
2021/05/22 00:28:06;;;;;;;1.80;0.98;;;;;;;15.52;59.62;100549.55;451204;113;922676;-69
2021/05/22 00:29:09;;;;;;;0.95;0.86;;;;;;;15.49;59.75;100557.44;451957;115;925320;-69
2021/05/22 00:30:14;;;;;;;1.26;0.89;;;;;;;15.43;59.74;100556.52;448041;116;924549;-70
2021/05/22 00:31:18;;;;;;;0.85;0.64;;;;;;;15.35;59.86;100554.16;447987;115;924095;-68
2021/05/22 00:32:21;;;;;;;0.61;0.60;;;;;;;15.29;60.04;100561.47;447897;115;924057;-69
2021/05/22 00:33:25;;;;;;;0.64;0.64;;;;;;;15.23;60.21;100561.61;446885;116;924137;-69
2021/05/22 00:34:29;;;;;;;4.01;0.60;;;;;;;15.16;60.33;100560.95;447426;115;931704;-70
2021/05/22 00:35:33;;;;;;;1.44;0.61;;;;;;;15.09;60.62;100563.00;447750;117;930413;-70
2021/05/22 00:36:36;;;;;;;1.31;0.54;;;;;;;15.03;60.74;100556.57;447532;116;930225;-72
2021/05/22 00:37:40;;;;;;;0.88;0.50;;;;;;;14.97;60.97;100555.63;447262;117;924050;-69
2021/05/22 00:38:43;;;;;;;0.64;0.47;;;;;;;14.92;61.02;100551.95;448289;115;923912;-69
2021/05/22 00:39:48;;;;;;;0.76;0.76;;;;;;;14.85;61.17;100549.34;447907;116;922445;-70
2021/05/22 00:40:55;;;;;;;1.25;0.50;;;;;;;14.82;61.26;100538.03;448327;115;922957;-69
2021/05/22 00:42:03;;;;;;;0.75;0.60;;;;;;;14.83;61.44;100536.95;447773;116;922785;-70
2021/05/22 00:43:04;;;;;;;0.98;0.85;;;;;;;14.85;61.30;100526.55;446802;115;923136;-70
2021/05/22 00:44:08;;;;;;;0.51;0.50;;;;;;;14.86;61.40;100531.80;449354;115;922639;-68
2021/05/22 00:45:15;;;;;;;0.88;0.78;;;;;;;14.85;61.31;100526.55;448911;116;930246;-71
2021/05/22 00:46:19;;;;;;;0.83;0.74;;;;;;;14.83;61.38;100528.72;447736;117;922775;-70
2021/05/22 00:47:23;;;;;;;2.44;0.82;;;;;;;14.82;61.46;100533.38;447113;116;924556;-70
2021/05/22 00:48:28;;;;;;;1.04;0.60;;;;;;;14.82;61.38;100538.03;445827;116;929574;-73
2021/05/22 00:49:33;;;;;;;1.86;1.02;;;;;;;14.78;61.42;100534.08;446791;116;923010;-71
2021/05/22 00:50:40;;;;;;;0.62;0.45;;;;;;;14.72;61.50;100530.39;447036;117;922896;-73
2021/05/22 00:51:43;;;;;;;2.14;1.16;;;;;;;14.65;61.69;100520.66;447213;115;922577;-72
2021/05/22 00:52:47;;;;;;;0.75;0.75;;;;;;;14.60;61.77;100533.20;447895;115;922457;-72
2021/05/22 00:53:52;;;;;;;1.32;0.59;;;;;;;14.57;61.93;100528.18;446969;116;922674;-73
2021/05/22 00:54:56;;;;;;;0.76;0.74;;;;;;;14.57;62.02;100536.41;447439;117;922711;-70
2021/05/22 00:56:04;;;;;;;1.65;0.60;;;;;;;14.56;62.05;100536.64;447643;115;922853;-74
2021/05/22 00:57:08;;;;;;;0.66;0.65;;;;;;;14.57;62.14;100536.41;447184;115;922866;-73
2021/05/22 00:58:12;;;;;;;1.86;0.84;;;;;;;14.59;62.08;100537.02;448089;117;922544;-72
2021/05/22 00:59:18;;;;;;;0.96;0.90;;;;;;;14.60;62.05;100537.85;448418;116;923059;-71
2021/05/22 01:00:42;;;;;;;2.00;0.92;;;;;;;14.61;62.05;100540.33;448076;115;922644;-73
2021/05/22 01:01:46;;;;;;;4.73;1.54;;;;;;;14.61;61.95;100547.73;448166;116;922982;-71
2021/05/22 01:02:49;;;;;;;2.83;0.86;;;;;;;14.55;61.97;100535.00;448343;115;922532;-71
2021/05/22 01:03:53;;;;;;;1.97;0.79;;;;;;;14.51;62.15;100537.38;447484;115;922808;-71
2021/05/22 01:04:57;;;;;;;1.53;0.76;;;;;;;14.50;62.22;100535.70;448542;115;925407;-72
2021/05/22 01:06:10;;;;;;;0.95;0.91;;;;;;;14.49;62.25;100534.06;448222;115;925682;-72
2021/05/22 01:07:14;;;;;;;1.44;0.88;;;;;;;14.49;62.29;100534.06;447474;115;923818;-70
2021/05/22 01:08:23;;;;;;;4.57;1.17;;;;;;;14.48;62.24;100526.90;448679;116;924098;-72
2021/05/22 01:09:28;;;;;;;0.93;0.86;;;;;;;14.47;62.28;100525.23;446501;116;930307;-72
2021/05/22 01:10:32;;;;;;;2.01;0.98;;;;;;;14.41;62.30;100523.44;447083;117;924072;-72
2021/05/22 01:11:52;;;;;;;3.85;1.15;;;;;;;14.37;62.40;100533.23;446449;116;924872;-73
2021/05/22 01:12:56;;;;;;;1.16;1.04;;;;;;;14.35;62.59;100526.28;447376;117;925604;-72
2021/05/22 01:14:15;;;;;;;1.05;0.91;;;;;;;14.32;62.81;100524.03;447826;116;924004;-72
2021/05/22 01:15:23;;;;;;;1.68;0.90;;;;;;;14.29;62.76;100519.84;447590;116;924887;-71
2021/05/22 01:16:29;;;;;;;1.08;0.91;;;;;;;14.26;62.88;100520.34;447106;115;924050;-71
2021/05/22 01:17:36;;;;;;;1.72;1.00;;;;;;;14.22;63.10;100516.42;446713;115;924040;-72
2021/05/22 01:18:41;;;;;;;1.58;0.98;;;;;;;14.20;63.12;100537.75;447920;116;932329;-72
2021/05/22 01:20:11;;;;;;;1.41;1.21;;;;;;;14.18;63.17;100548.12;447530;117;922934;-71
2021/05/22 01:21:19;;;;;;;0.87;0.74;;;;;;;14.16;63.25;100556.60;447565;115;922642;-72
2021/05/22 01:22:25;;;;;;;1.52;0.89;;;;;;;14.12;63.27;100580.06;447064;116;923077;-72
2021/05/22 01:23:45;;;;;;;0.98;0.90;;;;;;;14.13;63.35;100591.88;447333;115;922483;-72
2021/05/22 01:24:51;;;;;;;1.14;0.95;;;;;;;14.16;63.34;100583.19;447282;117;923133;-73
2021/05/22 01:25:56;;;;;;;1.08;0.97;;;;;;;14.17;63.25;100557.41;447880;115;922592;-72
2021/05/22 01:27:01;;;;;;;1.02;0.85;;;;;;;14.17;63.20;100543.70;448471;117;923317;-71
2021/05/22 01:28:07;;;;;;;2.06;1.14;;;;;;;14.17;63.25;100527.25;450753;116;923917;-72
2021/05/22 01:29:14;;;;;;;1.94;0.93;;;;;;;14.22;63.24;100538.36;451165;115;922729;-70
2021/05/22 01:30:23;;;;;;;0.98;0.98;;;;;;;14.28;63.16;100520.11;449844;116;924201;-73
2021/05/22 01:31:27;;;;;;;2.53;0.90;;;;;;;14.34;63.00;100514.47;447626;115;922485;-73
2021/05/22 01:32:31;;;;;;;0.83;0.68;;;;;;;14.38;62.70;100512.97;445878;116;923041;-72
2021/05/22 01:33:37;;;;;;;4.79;0.81;;;;;;;14.42;62.41;100510.56;447576;117;922542;-72
2021/05/22 01:34:42;;;;;;;1.87;0.90;;;;;;;14.42;62.29;100513.31;441772;118;923213;-73
2021/05/22 01:35:46;;;;;;;3.90;1.16;;;;;;;14.39;62.41;100524.78;441433;117;925602;-71
2021/05/22 01:36:50;;;;;;;1.75;0.86;;;;;;;14.40;62.47;100524.52;446706;117;926255;-72
2021/05/22 01:37:54;;;;;;;1.54;0.99;;;;;;;14.42;62.39;100522.38;447712;116;930252;-71
2021/05/22 01:38:57;;;;;;;1.20;0.80;;;;;;;14.42;62.37;100516.89;447002;116;923149;-73
2021/05/22 01:40:01;;;;;;;1.52;0.90;;;;;;;14.42;62.31;100527.02;447318;116;922777;-71
2021/05/22 01:41:05;;;;;;;0.99;0.68;;;;;;;14.42;62.39;100527.86;447297;116;930254;-72
2021/05/22 01:42:10;;;;;;;1.11;0.84;;;;;;;14.45;62.45;100532.02;447643;116;930187;-72
2021/05/22 01:45:04;;;;;;;0.77;0.77;;;;;;;14.53;62.44;100562.67;447996;117;922613;-71
2021/05/22 01:46:09;;;;;;;0.96;0.93;;;;;;;14.59;62.47;100553.48;438186;118;923100;-70
2021/05/22 01:47:14;;;;;;;0.70;0.70;;;;;;;14.64;62.46;100546.42;437927;116;924661;-70
2021/05/22 01:48:22;;;;;;;1.46;0.86;;;;;;;14.68;62.39;100542.11;446842;116;923182;-70
2021/05/22 01:49:27;;;;;;;2.43;1.07;;;;;;;14.73;62.28;100537.56;447275;117;924039;-67
2021/05/22 01:50:35;;;;;;;1.03;0.92;;;;;;;14.78;62.15;100532.17;446128;117;922909;-70
2021/05/22 01:51:41;;;;;;;1.03;0.90;;;;;;;14.84;61.87;100531.20;446371;117;927378;-67
2021/05/22 01:52:47;;;;;;;1.58;0.87;;;;;;;14.88;61.36;100542.55;445855;115;923150;-69
2021/05/22 01:53:52;;;;;;;0.79;0.79;;;;;;;14.89;61.34;100539.53;446714;115;926293;-69
2021/05/22 01:54:56;;;;;;;1.78;0.99;;;;;;;14.90;61.26;100548.61;446347;117;922872;-69
2021/05/22 01:56:01;;;;;;;1.16;0.98;;;;;;;14.91;61.09;100544.79;446191;117;925402;-69
2021/05/22 01:57:06;;;;;;;2.42;1.32;;;;;;;14.91;60.96;100542.05;446687;116;923911;-70
2021/05/22 01:58:11;;;;;;;1.31;0.98;;;;;;;14.90;61.08;100546.70;448014;116;924061;-69
2021/05/22 01:59:16;;;;;;;1.24;0.94;;;;;;;14.91;60.79;100548.38;446917;117;922636;-70
2021/05/22 02:00:21;;;;;;;1.78;1.08;;;;;;;14.88;60.77;100554.36;447670;117;922640;-69
2021/05/22 02:01:26;;;;;;;2.87;1.13;;;;;;;14.85;60.82;100554.83;448077;115;923028;-69
2021/05/22 02:02:30;;;;;;;2.53;1.05;;;;;;;14.83;60.91;100547.94;447220;116;922439;-70
2021/05/22 02:03:37;;;;;;;2.71;1.10;;;;;;;14.84;60.87;100552.32;446845;117;924579;-70
2021/05/22 02:04:45;;;;;;;1.81;1.01;;;;;;;14.82;60.78;100544.36;447732;116;932850;-68
2021/05/22 02:05:52;;;;;;;1.96;0.97;;;;;;;14.77;60.66;100530.53;447480;116;924016;-68
2021/05/22 02:06:59;;;;;;;3.78;1.07;;;;;;;14.70;60.95;100521.59;448023;116;926005;-70
2021/05/22 02:08:06;;;;;;;1.00;0.95;;;;;;;14.66;61.02;100509.44;447573;116;924003;-72
2021/05/22 02:09:14;;;;;;;1.58;1.27;;;;;;;14.65;61.10;100515.16;448467;117;925266;-70
2021/05/22 02:10:19;;;;;;;1.88;1.01;;;;;;;14.64;61.18;100518.98;447147;116;923144;-69
2021/05/22 02:11:27;;;;;;;4.20;0.95;;;;;;;14.65;61.30;100520.66;449462;117;926630;-70
2021/05/22 02:12:33;;;;;;;2.51;0.92;;;;;;;14.68;61.33;100522.90;447827;117;922643;-71
2021/05/22 02:13:40;;;;;;;1.17;0.92;;;;;;;14.71;61.07;100522.42;447172;117;925614;-68
2021/05/22 02:14:45;;;;;;;1.46;1.12;;;;;;;14.71;60.89;100533.41;445992;117;923139;-70
2021/05/22 02:15:56;;;;;;;1.91;0.96;;;;;;;14.72;60.96;100537.83;446385;117;925135;-70
2021/05/22 02:17:02;;;;;;;0.86;0.86;;;;;;;14.72;60.99;100535.08;445874;116;924143;-69
2021/05/22 02:18:09;;;;;;;1.03;0.92;;;;;;;14.74;60.83;100543.88;447574;116;931587;-70
2021/05/22 02:19:15;;;;;;;1.11;0.97;;;;;;;14.72;60.70;100541.38;447424;116;922986;-70
2021/05/22 02:20:22;;;;;;;2.88;0.96;;;;;;;14.71;60.79;100536.15;446459;117;923048;-71
2021/05/22 02:21:28;;;;;;;1.77;0.91;;;;;;;14.71;60.59;100527.92;447164;116;922389;-70
2021/05/22 02:22:33;;;;;;;0.62;0.62;;;;;;;14.66;60.65;100525.07;446865;116;922941;-69
2021/05/22 02:23:41;;;;;;;2.75;0.80;;;;;;;14.65;60.86;100534.38;447984;117;922517;-70
2021/05/22 02:24:45;;;;;;;2.27;1.03;;;;;;;14.66;60.84;100541.53;447183;117;922689;-69
2021/05/22 02:25:49;;;;;;;1.58;0.76;;;;;;;14.66;60.81;100536.88;448343;115;923258;-68
2021/05/22 02:26:58;;;;;;;1.64;0.75;;;;;;;14.68;60.84;100539.36;447144;117;922889;-70
2021/05/22 02:28:06;;;;;;;1.34;1.01;;;;;;;14.68;60.91;100542.11;447808;117;930079;-69
2021/05/22 02:29:16;;;;;;;2.59;0.86;;;;;;;14.68;60.78;100542.94;448118;116;922425;-68
2021/05/22 02:30:21;;;;;;;1.37;1.25;;;;;;;14.67;60.89;100554.16;448036;116;923275;-68
2021/05/22 02:31:28;;;;;;;2.01;0.91;;;;;;;14.67;60.95;100546.76;447280;116;922601;-70
2021/05/22 02:32:33;;;;;;;1.25;0.72;;;;;;;14.70;60.96;100557.27;449330;117;923218;-70
2021/05/22 02:33:37;;;;;;;2.01;1.02;;;;;;;14.71;60.79;100552.62;448752;116;922960;-70
2021/05/22 02:34:53;;;;;;;1.97;1.03;;;;;;;14.71;60.79;100552.62;447733;116;933476;-70
2021/05/22 02:36:05;;;;;;;1.12;0.79;;;;;;;14.81;60.72;100550.08;504168;103;928154;-70
2021/05/22 02:37:10;;;;;;;2.73;0.60;;;;;;;14.69;60.72;100557.50;488547;105;924123;-67
2021/05/22 02:38:18;;;;;;;1.42;0.77;;;;;;;14.69;60.73;100571.22;485256;106;923903;-69
2021/05/22 02:39:22;;;;;;;1.44;0.69;;;;;;;14.68;60.81;100589.60;481716;106;924122;-69
2021/05/22 02:40:29;;;;;;;1.36;0.81;;;;;;;14.67;60.70;100581.59;484299;106;925169;-68
2021/05/22 02:41:34;;;;;;;2.34;1.00;;;;;;;14.65;60.72;100586.52;487471;106;923975;-68
2021/05/22 02:42:41;;;;;;;2.32;0.91;;;;;;;14.61;60.90;100584.23;483675;106;926422;-69
2021/05/22 02:43:48;;;;;;;1.47;0.87;;;;;;;14.60;60.99;100579.01;484725;106;923219;-70
2021/05/22 02:44:54;;;;;;;1.32;0.90;;;;;;;14.61;61.03;100586.98;483469;106;922929;-68
2021/05/22 02:46:00;;;;;;;0.93;0.70;;;;;;;14.60;61.14;100579.01;481413;106;924390;-68
2021/05/22 02:47:05;;;;;;;3.14;0.85;;;;;;;14.62;61.25;100579.58;482906;106;922788;-69
2021/05/22 02:48:12;;;;;;;0.75;0.71;;;;;;;14.64;61.21;100579.35;484742;106;923993;-69
2021/05/22 02:49:18;;;;;;;1.38;0.89;;;;;;;14.68;61.18;100581.36;481447;106;923945;-70
2021/05/22 02:50:24;;;;;;;1.37;0.74;;;;;;;14.71;61.05;100585.55;482660;106;922376;-70
2021/05/22 02:51:29;;;;;;;1.54;0.91;;;;;;;14.73;61.03;100577.89;483888;106;924050;-69
2021/05/22 02:52:37;;;;;;;2.77;0.83;;;;;;;14.73;60.83;100572.41;481248;106;923999;-70
2021/05/22 02:53:44;;;;;;;1.70;0.78;;;;;;;14.70;60.86;100567.41;481900;106;924039;-69
2021/05/22 02:54:50;;;;;;;0.98;0.93;;;;;;;14.70;60.98;100568.25;483159;106;924474;-68
2021/05/22 02:55:54;;;;;;;1.18;0.78;;;;;;;14.72;60.98;100570.76;482308;106;922895;-69
2021/05/22 02:56:58;;;;;;;1.55;1.15;;;;;;;14.73;60.96;100565.00;481531;106;924112;-70
2021/05/22 02:58:03;;;;;;;1.11;0.65;;;;;;;14.75;60.94;100562.86;481981;106;924018;-68
2021/05/22 02:59:09;;;;;;;5.32;1.33;;;;;;;14.77;60.93;100563.47;485579;106;923961;-69
2021/05/22 03:00:15;;;;;;;0.70;0.70;;;;;;;14.78;60.96;100551.38;484180;106;924004;-70
2021/05/22 03:01:19;;;;;;;1.61;0.58;;;;;;;14.81;60.96;100550.91;482948;106;923964;-70
2021/05/22 03:02:24;;;;;;;1.32;1.06;;;;;;;14.84;61.00;100549.58;486322;106;923981;-69
2021/05/22 03:03:28;;;;;;;1.41;0.80;;;;;;;14.86;60.99;100550.18;483841;106;925357;-69
2021/05/22 03:04:34;;;;;;;0.98;0.70;;;;;;;14.89;60.82;100550.52;484586;106;924080;-69
2021/05/22 03:05:38;;;;;;;0.91;0.57;;;;;;;14.91;60.64;100553.86;486216;106;923997;-69
2021/05/22 03:06:42;;;;;;;0.79;0.79;;;;;;;14.92;60.69;100557.45;483833;106;923108;-70
2021/05/22 03:07:46;;;;;;;2.73;0.72;;;;;;;14.94;60.68;100558.05;485398;106;923931;-69
2021/05/22 03:08:50;;;;;;;1.07;0.97;;;;;;;14.96;60.66;100564.95;483056;106;931726;-69
2021/05/22 03:09:54;;;;;;;0.88;0.72;;;;;;;14.98;60.53;100576.53;484505;106;924419;-70
2021/05/22 03:10:58;;;;;;;1.43;0.60;;;;;;;14.99;60.59;100580.95;481810;106;932136;-70
2021/05/22 03:12:02;;;;;;;3.36;0.92;;;;;;;15.00;60.57;100590.83;483064;106;924056;-69
2021/05/22 03:13:06;;;;;;;0.58;0.58;;;;;;;15.02;60.55;100593.34;483366;106;922795;-67
2021/05/22 03:14:10;;;;;;;0.76;0.66;;;;;;;15.04;60.43;100602.18;483396;106;922634;-70
2021/05/22 03:15:15;;;;;;;0.65;0.62;;;;;;;15.05;60.51;100597.52;481616;106;922378;-69
2021/05/22 03:16:19;;;;;;;0.91;0.52;;;;;;;15.08;60.37;100606.09;482187;106;922571;-70
2021/05/22 03:17:23;;;;;;;0.74;0.61;;;;;;;15.08;60.06;100608.84;482482;106;922854;-71
2021/05/22 03:18:26;;;;;;;3.37;0.80;;;;;;;15.06;60.08;100610.98;482426;106;930287;-71
2021/05/22 03:19:30;;;;;;;1.34;0.81;;;;;;;15.04;59.94;100613.16;485662;106;922841;-70
2021/05/22 03:20:35;;;;;;;1.43;0.59;;;;;;;15.03;60.08;100619.72;485187;106;923072;-70
2021/05/22 03:21:39;;;;;;;4.27;0.71;;;;;;;15.01;59.89;100625.45;486256;106;922707;-69
2021/05/22 03:22:42;;;;;;;0.98;0.56;;;;;;;14.99;59.98;100624.88;485279;106;930404;-70
2021/05/22 03:23:46;;;;;;;1.56;0.72;;;;;;;15.00;60.27;100631.17;484589;106;930116;-71
2021/05/22 03:24:50;;;;;;;0.67;0.64;;;;;;;15.02;60.25;100637.27;484913;106;931726;-69
2021/05/22 03:25:53;;;;;;;1.39;0.60;;;;;;;15.05;60.15;100644.20;482693;106;924152;-69
2021/05/22 03:26:58;;;;;;;0.84;0.61;;;;;;;15.08;60.00;100644.55;483543;106;923967;-69
2021/05/22 03:28:02;;;;;;;0.86;0.64;;;;;;;15.09;59.83;100654.45;485084;106;925192;-71
2021/05/22 03:29:05;;;;;;;0.52;0.52;;;;;;;15.13;59.63;100657.54;485134;106;924101;-69
2021/05/22 03:30:11;;;;;;;0.61;0.60;;;;;;;15.14;59.42;100650.98;483849;106;922587;-71
2021/05/22 03:31:14;;;;;;;1.88;0.68;;;;;;;15.13;59.20;100661.13;483941;106;922536;-68
2021/05/22 03:32:18;;;;;;;1.54;0.69;;;;;;;15.11;59.34;100667.92;482830;106;922446;-70
2021/05/22 03:33:22;;;;;;;1.38;0.60;;;;;;;15.09;59.59;100670.94;483651;106;930131;-71
2021/05/22 03:34:26;;;;;;;1.92;0.62;;;;;;;15.10;59.48;100666.28;482709;106;923392;-70
2021/05/22 03:35:30;;;;;;;3.04;0.94;;;;;;;15.10;59.40;100663.53;481873;106;923345;-70
2021/05/22 03:36:35;;;;;;;0.72;0.63;;;;;;;15.08;59.48;100657.44;482652;106;930500;-68
2021/05/22 03:37:39;;;;;;;1.18;0.51;;;;;;;15.06;59.59;100654.92;480724;106;923735;-70
2021/05/22 03:38:43;;;;;;;3.59;0.86;;;;;;;15.07;59.61;100655.77;484287;106;924017;-69
2021/05/22 03:39:47;;;;;;;2.49;0.64;;;;;;;15.09;59.68;100657.20;485731;106;923982;-71
2021/05/22 03:40:51;;;;;;;1.44;0.60;;;;;;;15.11;59.42;100657.77;485433;106;931704;-69
2021/05/22 03:41:54;;;;;;;1.66;0.58;;;;;;;15.10;59.47;100667.12;486025;106;923968;-69
2021/05/22 03:42:58;;;;;;;2.58;0.86;;;;;;;15.10;59.46;100664.37;484598;106;924436;-69
2021/05/22 03:44:02;;;;;;;1.46;0.68;;;;;;;15.11;59.45;100659.69;484946;106;932044;-69
2021/05/22 03:45:08;;;;;;;3.23;1.04;;;;;;;15.10;59.22;100663.53;458511;111;933121;-68
2021/05/22 03:46:12;;;;;;;2.24;0.82;;;;;;;15.09;59.52;100656.37;471084;109;923927;-70
2021/05/22 03:47:15;;;;;;;4.74;3.71;;;;;;;15.10;59.52;100649.80;472255;110;923951;-70
2021/05/22 03:48:19;;;;;;;1.91;0.74;;;;;;;15.09;59.47;100651.71;471702;110;932381;-69
2021/05/22 03:49:22;;;;;;;2.79;1.13;;;;;;;15.10;59.08;100644.31;473675;109;924114;-70
2021/05/22 03:50:27;;;;;;;1.75;0.68;;;;;;;15.08;59.08;100636.30;474247;109;931761;-68
2021/05/22 03:51:30;;;;;;;7.73;0.70;;;;;;;15.07;58.86;100637.37;472663;109;931569;-71
2021/05/22 03:52:34;;;;;;;0.66;0.61;;;;;;;15.07;59.04;100648.36;474855;109;931650;-71
2021/05/22 03:53:38;;;;;;;1.55;0.50;;;;;;;15.05;58.77;100642.27;459497;112;931639;-70
2021/05/22 03:54:43;;;;;;;0.88;0.58;;;;;;;15.06;58.98;100649.44;469023;111;925190;-71
2021/05/22 03:55:47;;;;;;;2.27;0.71;;;;;;;15.07;59.04;100642.87;471612;110;924023;-69
2021/05/22 03:56:50;;;;;;;4.15;0.65;;;;;;;15.10;59.17;100649.80;471424;110;924072;-70
2021/05/22 03:57:54;;;;;;;5.49;0.76;;;;;;;15.14;58.89;100639.99;461880;112;926490;-72
2021/05/22 03:58:57;;;;;;;5.15;0.50;;;;;;;15.16;58.87;100646.09;471434;109;924062;-73
2021/05/22 04:00:01;;;;;;;1.41;0.46;;;;;;;15.19;58.98;100654.66;462213;112;925498;-71
2021/05/22 04:01:06;;;;;;;2.95;0.58;;;;;;;15.22;59.01;100658.81;469780;111;924035;-71
2021/05/22 04:02:10;;;;;;;1.13;0.75;;;;;;;15.26;59.01;100654.53;468960;111;925360;-71
2021/05/22 04:03:14;;;;;;;6.97;2.31;;;;;;;15.31;58.80;100658.22;474977;109;925665;-74
2021/05/22 04:04:18;;;;;;;1.46;0.56;;;;;;;15.34;58.67;100646.72;473083;109;923989;-72
2021/05/22 04:05:21;;;;;;;1.84;0.80;;;;;;;15.39;58.52;100645.98;462723;112;925104;-71
2021/05/22 04:06:26;;;;;;;1.94;0.51;;;;;;;15.43;58.54;100666.42;471487;110;931614;-71
2021/05/22 04:07:29;;;;;;;0.79;0.47;;;;;;;15.45;58.31;100684.31;471928;110;924090;-73
2021/05/22 04:08:35;;;;;;;1.86;0.73;;;;;;;15.43;57.95;100696.64;471025;110;931788;-70
2021/05/22 04:09:38;;;;;;;3.11;0.64;;;;;;;15.43;58.14;100710.39;452645;113;924005;-71
2021/05/22 04:10:44;;;;;;;2.74;0.83;;;;;;;15.42;58.22;100706.80;462268;110;931794;-71
2021/05/22 04:11:47;;;;;;;1.26;0.44;;;;;;;15.43;58.32;100683.75;462007;112;924053;-71
2021/05/22 04:12:51;;;;;;;1.99;0.76;;;;;;;15.46;58.28;100676.91;452919;113;924803;-71
2021/05/22 04:13:55;;;;;;;2.74;0.60;;;;;;;15.49;58.26;100665.45;467740;111;931809;-71
2021/05/22 04:14:58;;;;;;;1.81;0.60;;;;;;;15.53;58.28;100660.31;463916;111;924497;-70
2021/05/22 04:16:03;;;;;;;2.58;0.57;;;;;;;15.54;58.14;100657.33;462568;111;925417;-71
2021/05/22 04:17:06;;;;;;;2.71;0.95;;;;;;;15.53;58.27;100660.31;458229;112;924105;-69
2021/05/22 04:18:09;;;;;;;2.19;0.69;;;;;;;15.55;58.24;100660.91;459152;111;925276;-71
2021/05/22 04:19:13;;;;;;;5.19;0.67;;;;;;;15.57;58.29;100673.31;471042;110;924144;-70
2021/05/22 04:20:17;;;;;;;1.93;0.52;;;;;;;15.60;57.98;100683.00;469894;110;924080;-71
2021/05/22 04:21:20;;;;;;;1.56;0.91;;;;;;;15.59;57.91;100690.41;471013;111;924104;-69
2021/05/22 04:22:24;;;;;;;5.17;0.70;;;;;;;15.60;58.03;100704.98;467653;111;925601;-73
2021/05/22 04:23:28;;;;;;;0.99;0.68;;;;;;;15.62;58.21;100705.55;463493;112;933146;-67
2021/05/22 04:24:32;;;;;;;1.20;0.59;;;;;;;15.66;58.06;100703.98;462059;113;924027;-71
2021/05/22 04:25:36;;;;;;;1.51;0.66;;;;;;;15.70;57.91;100691.44;465891;112;924103;-71
2021/05/22 04:26:41;;;;;;;1.62;0.77;;;;;;;15.72;57.75;100678.26;466260;111;924095;-70
2021/05/22 04:27:45;;;;;;;1.00;0.66;;;;;;;15.72;57.71;100672.76;465828;111;924003;-71
2021/05/22 04:28:49;;;;;;;0.78;0.58;;;;;;;15.71;57.73;100676.61;464744;111;923095;-70
2021/05/22 04:29:53;;;;;;;2.16;0.58;;;;;;;15.71;57.77;100669.17;465792;111;922533;-69
2021/05/22 04:30:56;;;;;;;2.07;0.65;;;;;;;15.71;57.78;100669.17;465849;111;923102;-70
2021/05/22 04:32:01;;;;;;;2.49;0.54;;;;;;;15.72;57.86;100664.52;463859;111;922935;-70
2021/05/22 04:33:08;;;;;;;3.61;0.53;;;;;;;15.71;58.04;100657.37;461476;113;922687;-71
2021/05/22 04:34:12;;;;;;;1.14;0.40;;;;;;;15.73;57.83;100655.19;448588;113;923033;-74
2021/05/22 04:35:16;;;;;;;0.87;0.49;;;;;;;15.74;57.70;100656.86;455524;113;924769;-76
2021/05/22 04:36:22;;;;;;;1.07;0.44;;;;;;;15.70;57.43;100655.70;464680;111;922856;-69
2021/05/22 04:37:25;;;;;;;0.96;0.57;;;;;;;15.67;57.51;100654.27;463541;112;924019;-68
2021/05/22 04:38:33;;;;;;;3.52;1.06;;;;;;;15.63;57.74;100653.09;463462;111;932413;-69
2021/05/22 04:39:37;;;;;;;1.49;0.62;;;;;;;15.61;57.95;100659.91;462623;112;922528;-69
2021/05/22 04:40:42;;;;;;;2.61;0.63;;;;;;;15.58;58.00;100663.99;463468;111;922600;-69
2021/05/22 04:41:48;;;;;;;2.31;1.07;;;;;;;15.58;58.14;100688.73;463285;111;932328;-67
2021/05/22 04:42:52;;;;;;;3.17;0.58;;;;;;;15.61;58.40;100692.88;464496;111;922569;-69
2021/05/22 04:43:55;;;;;;;1.91;0.68;;;;;;;15.65;58.34;100686.68;466633;111;922829;-68
2021/05/22 04:44:59;;;;;;;1.19;0.49;;;;;;;15.69;58.39;100674.10;464490;111;930281;-69
2021/05/22 04:46:04;;;;;;;1.95;0.45;;;;;;;15.74;57.85;100674.20;468432;111;922467;-70
2021/05/22 04:47:07;;;;;;;1.65;0.56;;;;;;;15.76;57.72;100673.95;465406;111;923785;-68
2021/05/22 04:48:12;;;;;;;0.59;0.49;;;;;;;15.75;57.50;100681.37;467053;111;922557;-69
2021/05/22 04:49:16;;;;;;;1.95;0.63;;;;;;;15.77;57.56;100706.68;467972;111;930061;-69
2021/05/22 04:50:19;;;;;;;0.98;0.49;;;;;;;15.77;57.66;100722.34;466412;111;930222;-68
2021/05/22 04:51:24;;;;;;;2.27;0.60;;;;;;;15.78;57.62;100737.76;457573;112;926317;-67
2021/05/22 04:52:28;;;;;;;0.89;0.53;;;;;;;15.78;57.79;100740.51;456932;111;931816;-71
2021/05/22 04:53:34;;;;;;;0.79;0.42;;;;;;;15.78;57.86;100730.34;466456;110;923278;-70
2021/05/22 04:54:37;;;;;;;1.13;0.46;;;;;;;15.81;57.80;100721.63;465025;111;922481;-68
2021/05/22 04:55:41;;;;;;;2.86;0.50;;;;;;;15.83;57.74;100713.11;464130;111;922891;-70
2021/05/22 04:56:46;;;;;;;0.56;0.48;;;;;;;15.84;57.66;100696.38;465262;111;922614;-70
2021/05/22 04:57:50;;;;;;;2.08;0.61;;;;;;;15.87;57.69;100691.47;464210;111;922538;-69
2021/05/22 04:58:53;;;;;;;2.29;0.49;;;;;;;15.89;57.67;100694.80;464266;111;930193;-71
2021/05/22 04:59:57;;;;;;;3.63;2.37;;;;;;;15.92;57.54;100703.41;464281;111;930189;-68
2021/05/22 05:01:02;;;;;;;1.87;0.42;;;;;;;15.94;57.47;100716.88;465700;111;930305;-69